sensor_id;sensor_type;location;lat;lon;timestamp;pressure;altitude;pressure_sealevel;temperature;humidity
10348;BME280;5220;43.192;23.284;2023-06-24T00:01:35;96849.44;;;24.26;100.00
10348;BME280;5220;43.192;23.284;2023-06-24T00:04:02;96851.28;;;24.26;100.00
10348;BME280;5220;43.192;23.284;2023-06-24T00:06:28;96854.34;;;24.23;100.00
10348;BME280;5220;43.192;23.284;2023-06-24T00:08:55;96851.91;;;24.21;100.00
10348;BME280;5220;43.192;23.284;2023-06-24T00:11:28;96851.28;;;24.19;100.00
10348;BME280;5220;43.192;23.284;2023-06-24T00:13:55;96841.66;;;24.18;100.00
10348;BME280;5220;43.192;23.284;2023-06-24T00:16:22;96843.91;;;24.15;100.00
10348;BME280;5220;43.192;23.284;2023-06-24T00:18:53;96840.63;;;24.13;100.00
10348;BME280;5220;43.192;23.284;2023-06-24T00:21:19;96844.66;;;24.08;100.00
10348;BME280;5220;43.192;23.284;2023-06-24T00:23:48;96836.88;;;24.07;100.00
10348;BME280;5220;43.192;23.284;2023-06-24T00:26:14;96839.75;;;24.05;100.00
10348;BME280;5220;43.192;23.284;2023-06-24T00:28:43;96846.28;;;24.03;100.00
10348;BME280;5220;43.192;23.284;2023-06-24T00:31:09;96846.66;;;23.93;100.00
10348;BME280;5220;43.192;23.284;2023-06-24T00:33:37;96850.13;;;23.94;100.00
10348;BME280;5220;43.192;23.284;2023-06-24T00:36:04;96852.56;;;23.95;100.00
10348;BME280;5220;43.192;23.284;2023-06-24T00:38:34;96835.19;;;23.93;100.00
10348;BME280;5220;43.192;23.284;2023-06-24T00:41:00;96844.00;;;23.93;100.00
10348;BME280;5220;43.192;23.284;2023-06-24T00:43:27;96842.56;;;23.91;100.00
10348;BME280;5220;43.192;23.284;2023-06-24T00:45:57;96844.38;;;23.90;100.00
10348;BME280;5220;43.192;23.284;2023-06-24T00:48:24;96845.28;;;23.70;100.00
10348;BME280;5220;43.192;23.284;2023-06-24T00:50:51;96839.13;;;23.63;100.00
10348;BME280;5220;43.192;23.284;2023-06-24T00:53:18;96836.13;;;23.72;100.00
10348;BME280;5220;43.192;23.284;2023-06-24T00:55:50;96840.22;;;23.75;100.00
10348;BME280;5220;43.192;23.284;2023-06-24T00:58:18;96840.00;;;23.76;100.00
10348;BME280;5220;43.192;23.284;2023-06-24T01:00:46;96830.19;;;23.77;100.00
10348;BME280;5220;43.192;23.284;2023-06-24T01:03:15;96833.88;;;23.76;100.00
10348;BME280;5220;43.192;23.284;2023-06-24T01:05:43;96832.44;;;23.73;100.00
10348;BME280;5220;43.192;23.284;2023-06-24T01:08:11;96828.94;;;23.73;100.00
10348;BME280;5220;43.192;23.284;2023-06-24T01:10:41;96823.03;;;23.71;100.00
10348;BME280;5220;43.192;23.284;2023-06-24T01:13:08;96820.75;;;23.68;100.00
10348;BME280;5220;43.192;23.284;2023-06-24T01:15:35;96813.41;;;23.63;100.00
10348;BME280;5220;43.192;23.284;2023-06-24T01:18:07;96827.69;;;23.62;100.00
10348;BME280;5220;43.192;23.284;2023-06-24T01:20:42;96828.91;;;23.60;100.00
10348;BME280;5220;43.192;23.284;2023-06-24T01:23:30;96823.16;;;23.56;100.00
10348;BME280;5220;43.192;23.284;2023-06-24T01:26:25;96828.66;;;23.54;100.00
10348;BME280;5220;43.192;23.284;2023-06-24T01:29:21;96822.72;;;23.52;100.00
10348;BME280;5220;43.192;23.284;2023-06-24T01:31:58;96828.59;;;23.48;100.00
10348;BME280;5220;43.192;23.284;2023-06-24T01:34:29;96837.19;;;23.43;100.00
10348;BME280;5220;43.192;23.284;2023-06-24T01:37:06;96839.84;;;23.43;100.00
10348;BME280;5220;43.192;23.284;2023-06-24T01:39:37;96848.50;;;23.31;100.00
10348;BME280;5220;43.192;23.284;2023-06-24T01:42:08;96852.75;;;23.25;100.00
10348;BME280;5220;43.192;23.284;2023-06-24T01:44:39;96862.09;;;23.21;100.00
10348;BME280;5220;43.192;23.284;2023-06-24T01:47:09;96866.84;;;23.26;100.00
10348;BME280;5220;43.192;23.284;2023-06-24T01:49:39;96871.56;;;23.30;100.00
10348;BME280;5220;43.192;23.284;2023-06-24T01:52:08;96865.03;;;23.33;100.00
10348;BME280;5220;43.192;23.284;2023-06-24T01:54:35;96860.56;;;23.33;100.00
10348;BME280;5220;43.192;23.284;2023-06-24T01:57:06;96863.41;;;23.32;100.00
10348;BME280;5220;43.192;23.284;2023-06-24T01:59:35;96860.94;;;23.30;100.00
10348;BME280;5220;43.192;23.284;2023-06-24T02:02:05;96867.91;;;23.31;100.00
10348;BME280;5220;43.192;23.284;2023-06-24T02:04:35;96870.13;;;23.28;100.00
10348;BME280;5220;43.192;23.284;2023-06-24T02:07:03;96870.28;;;23.26;100.00
10348;BME280;5220;43.192;23.284;2023-06-24T02:09:32;96882.13;;;23.24;100.00
10348;BME280;5220;43.192;23.284;2023-06-24T02:12:01;96886.63;;;23.23;100.00
10348;BME280;5220;43.192;23.284;2023-06-24T02:14:29;96892.56;;;23.25;100.00
10348;BME280;5220;43.192;23.284;2023-06-24T02:16:58;96893.56;;;23.24;100.00
10348;BME280;5220;43.192;23.284;2023-06-24T02:19:29;96899.88;;;23.23;100.00
10348;BME280;5220;43.192;23.284;2023-06-24T02:21:58;96892.31;;;23.20;100.00
10348;BME280;5220;43.192;23.284;2023-06-24T02:24:26;96896.00;;;23.19;100.00
10348;BME280;5220;43.192;23.284;2023-06-24T02:26:54;96899.22;;;23.15;100.00
10348;BME280;5220;43.192;23.284;2023-06-24T02:29:25;96901.31;;;23.19;100.00
10348;BME280;5220;43.192;23.284;2023-06-24T02:31:52;96903.31;;;23.17;100.00
10348;BME280;5220;43.192;23.284;2023-06-24T02:34:19;96903.13;;;23.19;100.00
10348;BME280;5220;43.192;23.284;2023-06-24T02:36:46;96899.44;;;23.20;100.00
10348;BME280;5220;43.192;23.284;2023-06-24T02:39:15;96905.28;;;23.09;100.00
10348;BME280;5220;43.192;23.284;2023-06-24T02:41:42;96920.06;;;22.96;100.00
10348;BME280;5220;43.192;23.284;2023-06-24T02:44:09;96931.19;;;23.07;100.00
10348;BME280;5220;43.192;23.284;2023-06-24T02:46:36;96951.03;;;23.11;100.00
10348;BME280;5220;43.192;23.284;2023-06-24T02:49:05;96949.47;;;23.16;100.00
10348;BME280;5220;43.192;23.284;2023-06-24T02:51:33;96954.63;;;23.24;100.00
10348;BME280;5220;43.192;23.284;2023-06-24T02:54:00;96962.59;;;23.24;100.00
10348;BME280;5220;43.192;23.284;2023-06-24T02:56:29;96966.69;;;23.27;100.00
10348;BME280;5220;43.192;23.284;2023-06-24T02:58:57;96965.88;;;23.26;100.00
10348;BME280;5220;43.192;23.284;2023-06-24T03:01:24;96969.72;;;23.24;100.00
10348;BME280;5220;43.192;23.284;2023-06-24T03:03:53;96971.56;;;23.23;100.00
10348;BME280;5220;43.192;23.284;2023-06-24T03:06:21;96963.78;;;23.22;100.00
10348;BME280;5220;43.192;23.284;2023-06-24T03:08:48;96957.66;;;23.21;100.00
10348;BME280;5220;43.192;23.284;2023-06-24T03:11:15;96963.16;;;23.20;100.00
10348;BME280;5220;43.192;23.284;2023-06-24T03:13:44;96961.31;;;23.20;100.00
10348;BME280;5220;43.192;23.284;2023-06-24T03:16:11;96966.00;;;23.18;100.00
10348;BME280;5220;43.192;23.284;2023-06-24T03:18:40;96950.25;;;23.17;100.00
10348;BME280;5220;43.192;23.284;2023-06-24T03:21:07;96957.84;;;23.20;100.00
10348;BME280;5220;43.192;23.284;2023-06-24T03:23:34;96949.13;;;23.26;100.00
10348;BME280;5220;43.192;23.284;2023-06-24T03:26:01;96952.84;;;23.31;100.00
10348;BME280;5220;43.192;23.284;2023-06-24T03:28:29;96955.56;;;23.38;100.00
10348;BME280;5220;43.192;23.284;2023-06-24T03:30:57;96944.59;;;23.41;100.00
10348;BME280;5220;43.192;23.284;2023-06-24T03:33:24;96949.13;;;23.47;100.00
10348;BME280;5220;43.192;23.284;2023-06-24T03:35:52;96950.38;;;23.51;100.00
10348;BME280;5220;43.192;23.284;2023-06-24T03:38:19;96938.38;;;23.55;100.00
10348;BME280;5220;43.192;23.284;2023-06-24T03:40:46;96929.81;;;23.60;100.00
10348;BME280;5220;43.192;23.284;2023-06-24T03:43:13;96929.44;;;23.63;100.00
10348;BME280;5220;43.192;23.284;2023-06-24T03:45:39;96934.53;;;23.64;100.00
10348;BME280;5220;43.192;23.284;2023-06-24T03:48:07;96934.97;;;23.68;100.00
10348;BME280;5220;43.192;23.284;2023-06-24T03:50:34;96940.13;;;23.69;100.00
10348;BME280;5220;43.192;23.284;2023-06-24T03:53:01;96939.47;;;23.67;100.00
10348;BME280;5220;43.192;23.284;2023-06-24T03:55:28;96938.25;;;23.70;100.00
10348;BME280;5220;43.192;23.284;2023-06-24T03:57:55;96936.69;;;23.75;100.00
10348;BME280;5220;43.192;23.284;2023-06-24T04:00:22;96944.06;;;23.80;100.00
10348;BME280;5220;43.192;23.284;2023-06-24T04:02:48;96947.34;;;23.82;100.00
10348;BME280;5220;43.192;23.284;2023-06-24T04:05:19;96948.78;;;23.84;100.00
10348;BME280;5220;43.192;23.284;2023-06-24T04:07:46;96943.09;;;23.87;100.00
10348;BME280;5220;43.192;23.284;2023-06-24T04:10:13;96949.47;;;23.93;100.00
10348;BME280;5220;43.192;23.284;2023-06-24T04:12:40;96948.06;;;23.97;100.00
10348;BME280;5220;43.192;23.284;2023-06-24T04:15:07;96943.19;;;24.00;100.00
10348;BME280;5220;43.192;23.284;2023-06-24T04:17:34;96952.19;;;24.06;100.00
10348;BME280;5220;43.192;23.284;2023-06-24T04:20:01;96942.00;;;24.09;100.00
10348;BME280;5220;43.192;23.284;2023-06-24T04:22:30;96939.38;;;24.16;100.00
10348;BME280;5220;43.192;23.284;2023-06-24T04:24:57;96937.16;;;24.20;100.00
10348;BME280;5220;43.192;23.284;2023-06-24T04:27:24;96931.88;;;24.26;100.00
10348;BME280;5220;43.192;23.284;2023-06-24T04:29:50;96934.38;;;24.34;100.00
10348;BME280;5220;43.192;23.284;2023-06-24T04:32:17;96935.19;;;24.41;100.00
10348;BME280;5220;43.192;23.284;2023-06-24T04:34:44;96937.50;;;24.51;100.00
10348;BME280;5220;43.192;23.284;2023-06-24T04:37:10;96946.75;;;24.61;100.00
10348;BME280;5220;43.192;23.284;2023-06-24T04:39:38;96946.56;;;24.76;100.00
10348;BME280;5220;43.192;23.284;2023-06-24T04:42:05;96946.84;;;24.88;100.00
10348;BME280;5220;43.192;23.284;2023-06-24T04:44:32;96947.50;;;25.03;100.00
10348;BME280;5220;43.192;23.284;2023-06-24T04:46:59;96953.25;;;25.20;100.00
10348;BME280;5220;43.192;23.284;2023-06-24T04:49:25;96950.19;;;25.36;100.00
10348;BME280;5220;43.192;23.284;2023-06-24T04:51:52;96935.91;;;25.50;100.00
10348;BME280;5220;43.192;23.284;2023-06-24T04:54:19;96946.31;;;25.78;100.00
10348;BME280;5220;43.192;23.284;2023-06-24T04:56:47;96948.78;;;26.56;100.00
10348;BME280;5220;43.192;23.284;2023-06-24T04:59:16;96951.00;;;27.66;100.00
10348;BME280;5220;43.192;23.284;2023-06-24T05:01:42;96952.28;;;28.79;100.00
10348;BME280;5220;43.192;23.284;2023-06-24T05:04:09;96948.59;;;29.86;100.00
10348;BME280;5220;43.192;23.284;2023-06-24T05:06:36;96938.88;;;30.83;100.00
10348;BME280;5220;43.192;23.284;2023-06-24T05:09:02;96931.06;;;31.72;100.00
10348;BME280;5220;43.192;23.284;2023-06-24T05:11:29;96937.97;;;32.61;97.48
10348;BME280;5220;43.192;23.284;2023-06-24T05:13:57;96938.09;;;33.46;91.83
10348;BME280;5220;43.192;23.284;2023-06-24T05:16:24;96933.09;;;33.97;80.24
10348;BME280;5220;43.192;23.284;2023-06-24T05:18:51;96931.44;;;34.38;75.40
10348;BME280;5220;43.192;23.284;2023-06-24T05:21:17;96925.44;;;34.78;73.12
10348;BME280;5220;43.192;23.284;2023-06-24T05:23:44;96926.88;;;35.16;70.33
10348;BME280;5220;43.192;23.284;2023-06-24T05:26:11;96927.72;;;35.41;68.78
10348;BME280;5220;43.192;23.284;2023-06-24T05:28:37;96928.00;;;35.85;65.08
10348;BME280;5220;43.192;23.284;2023-06-24T05:31:05;96931.50;;;35.96;63.92
10348;BME280;5220;43.192;23.284;2023-06-24T05:33:32;96936.88;;;36.26;59.01
10348;BME280;5220;43.192;23.284;2023-06-24T05:35:59;96932.00;;;36.03;56.95
10348;BME280;5220;43.192;23.284;2023-06-24T05:38:25;96931.78;;;35.79;56.10
10348;BME280;5220;43.192;23.284;2023-06-24T05:40:52;96937.78;;;35.61;58.96
10348;BME280;5220;43.192;23.284;2023-06-24T05:43:19;96941.81;;;35.69;61.84
10348;BME280;5220;43.192;23.284;2023-06-24T05:45:46;96940.72;;;35.49;58.54
10348;BME280;5220;43.192;23.284;2023-06-24T05:48:14;96945.84;;;35.41;58.50
10348;BME280;5220;43.192;23.284;2023-06-24T05:50:40;96942.59;;;35.44;58.42
10348;BME280;5220;43.192;23.284;2023-06-24T05:53:07;96941.25;;;35.46;57.10
10348;BME280;5220;43.192;23.284;2023-06-24T05:55:34;96946.38;;;35.53;58.60
10348;BME280;5220;43.192;23.284;2023-06-24T05:58:01;96946.38;;;35.48;57.50
10348;BME280;5220;43.192;23.284;2023-06-24T06:00:28;96951.28;;;35.46;63.11
10348;BME280;5220;43.192;23.284;2023-06-24T06:02:55;96958.53;;;35.20;65.01
10348;BME280;5220;43.192;23.284;2023-06-24T06:05:23;96958.47;;;35.05;66.22
10348;BME280;5220;43.192;23.284;2023-06-24T06:07:50;96961.69;;;34.87;63.44
10348;BME280;5220;43.192;23.284;2023-06-24T06:10:18;96969.38;;;34.11;78.24
10348;BME280;5220;43.192;23.284;2023-06-24T06:12:45;96967.53;;;33.85;87.39
10348;BME280;5220;43.192;23.284;2023-06-24T06:15:12;96974.94;;;33.63;91.46
10348;BME280;5220;43.192;23.284;2023-06-24T06:17:38;96964.88;;;32.56;90.03
10348;BME280;5220;43.192;23.284;2023-06-24T06:20:07;96964.38;;;32.04;94.84
10348;BME280;5220;43.192;23.284;2023-06-24T06:22:35;96979.66;;;31.82;96.66
10348;BME280;5220;43.192;23.284;2023-06-24T06:25:04;96978.47;;;31.44;100.00
10348;BME280;5220;43.192;23.284;2023-06-24T06:27:31;96985.19;;;31.30;100.00
10348;BME280;5220;43.192;23.284;2023-06-24T06:29:57;96987.34;;;31.17;100.00
10348;BME280;5220;43.192;23.284;2023-06-24T06:32:24;96976.13;;;30.91;100.00
10348;BME280;5220;43.192;23.284;2023-06-24T06:34:51;96978.47;;;30.88;100.00
10348;BME280;5220;43.192;23.284;2023-06-24T06:37:18;96982.81;;;30.77;100.00
10348;BME280;5220;43.192;23.284;2023-06-24T06:39:46;96984.16;;;30.63;100.00
10348;BME280;5220;43.192;23.284;2023-06-24T06:42:13;96993.97;;;30.46;100.00
10348;BME280;5220;43.192;23.284;2023-06-24T06:44:40;96988.03;;;30.44;100.00
10348;BME280;5220;43.192;23.284;2023-06-24T06:47:07;96992.94;;;30.01;100.00
10348;BME280;5220;43.192;23.284;2023-06-24T06:49:33;96994.94;;;30.17;100.00
10348;BME280;5220;43.192;23.284;2023-06-24T06:52:00;96997.81;;;30.27;100.00
10348;BME280;5220;43.192;23.284;2023-06-24T06:54:27;96994.44;;;30.31;100.00
10348;BME280;5220;43.192;23.284;2023-06-24T06:56:55;96999.69;;;30.38;100.00
10348;BME280;5220;43.192;23.284;2023-06-24T06:59:26;96994.78;;;30.35;100.00
10348;BME280;5220;43.192;23.284;2023-06-24T07:01:52;96985.94;;;30.23;100.00
10348;BME280;5220;43.192;23.284;2023-06-24T07:04:19;96996.19;;;30.03;100.00
10348;BME280;5220;43.192;23.284;2023-06-24T07:06:46;97005.41;;;29.83;100.00
10348;BME280;5220;43.192;23.284;2023-06-24T07:09:13;97000.88;;;30.07;100.00
10348;BME280;5220;43.192;23.284;2023-06-24T07:11:40;97010.78;;;29.95;100.00
10348;BME280;5220;43.192;23.284;2023-06-24T07:14:08;97013.13;;;30.03;100.00
10348;BME280;5220;43.192;23.284;2023-06-24T07:16:36;97005.66;;;30.17;100.00
10348;BME280;5220;43.192;23.284;2023-06-24T07:19:02;96997.47;;;30.23;100.00
10348;BME280;5220;43.192;23.284;2023-06-24T07:21:29;97003.31;;;30.20;100.00
10348;BME280;5220;43.192;23.284;2023-06-24T07:23:56;97007.88;;;30.20;100.00
10348;BME280;5220;43.192;23.284;2023-06-24T07:26:22;96999.69;;;30.15;100.00
10348;BME280;5220;43.192;23.284;2023-06-24T07:28:49;97002.16;;;30.28;100.00
10348;BME280;5220;43.192;23.284;2023-06-24T07:31:17;96997.59;;;30.40;100.00
10348;BME280;5220;43.192;23.284;2023-06-24T07:33:44;96995.75;;;30.41;100.00
10348;BME280;5220;43.192;23.284;2023-06-24T07:36:10;97004.59;;;30.53;100.00
10348;BME280;5220;43.192;23.284;2023-06-24T07:38:40;97001.00;;;30.01;100.00
10348;BME280;5220;43.192;23.284;2023-06-24T07:41:06;97008.81;;;30.25;100.00
10348;BME280;5220;43.192;23.284;2023-06-24T07:43:33;97004.00;;;30.27;100.00
10348;BME280;5220;43.192;23.284;2023-06-24T07:46:00;97000.88;;;30.19;100.00
10348;BME280;5220;43.192;23.284;2023-06-24T07:48:28;97001.47;;;30.44;100.00
10348;BME280;5220;43.192;23.284;2023-06-24T07:50:55;97003.66;;;30.59;100.00
10348;BME280;5220;43.192;23.284;2023-06-24T07:53:22;97003.59;;;30.70;100.00
10348;BME280;5220;43.192;23.284;2023-06-24T07:55:48;97002.75;;;30.42;100.00
10348;BME280;5220;43.192;23.284;2023-06-24T07:58:15;97005.16;;;30.66;100.00
10348;BME280;5220;43.192;23.284;2023-06-24T08:00:42;97008.31;;;30.63;100.00
10348;BME280;5220;43.192;23.284;2023-06-24T08:03:09;97006.72;;;30.51;100.00
10348;BME280;5220;43.192;23.284;2023-06-24T08:05:37;97008.97;;;30.70;100.00
10348;BME280;5220;43.192;23.284;2023-06-24T08:08:04;97003.34;;;30.83;100.00
10348;BME280;5220;43.192;23.284;2023-06-24T08:10:31;97009.75;;;30.94;100.00
10348;BME280;5220;43.192;23.284;2023-06-24T08:12:58;97019.78;;;30.99;100.00
10348;BME280;5220;43.192;23.284;2023-06-24T08:15:25;97013.09;;;31.13;100.00
10348;BME280;5220;43.192;23.284;2023-06-24T08:17:51;97006.47;;;30.92;100.00
10348;BME280;5220;43.192;23.284;2023-06-24T08:20:19;97006.22;;;31.05;100.00
10348;BME280;5220;43.192;23.284;2023-06-24T08:22:47;97013.13;;;30.89;100.00
10348;BME280;5220;43.192;23.284;2023-06-24T08:25:14;97001.97;;;30.81;100.00
10348;BME280;5220;43.192;23.284;2023-06-24T08:27:41;97007.81;;;30.78;100.00
10348;BME280;5220;43.192;23.284;2023-06-24T08:30:09;97002.53;;;30.83;100.00
10348;BME280;5220;43.192;23.284;2023-06-24T08:32:36;97004.25;;;30.89;100.00
10348;BME280;5220;43.192;23.284;2023-06-24T08:35:03;97006.38;;;30.99;100.00
10348;BME280;5220;43.192;23.284;2023-06-24T08:37:31;97002.22;;;31.08;100.00
10348;BME280;5220;43.192;23.284;2023-06-24T08:39:59;97003.25;;;31.18;100.00
10348;BME280;5220;43.192;23.284;2023-06-24T08:42:26;96999.88;;;31.11;100.00
10348;BME280;5220;43.192;23.284;2023-06-24T08:44:52;96994.16;;;31.08;100.00
10348;BME280;5220;43.192;23.284;2023-06-24T08:47:19;96997.94;;;31.07;100.00
10348;BME280;5220;43.192;23.284;2023-06-24T08:49:47;96990.84;;;31.01;100.00
10348;BME280;5220;43.192;23.284;2023-06-24T08:52:15;96986.69;;;31.10;100.00
10348;BME280;5220;43.192;23.284;2023-06-24T08:54:46;96992.97;;;31.15;100.00
10348;BME280;5220;43.192;23.284;2023-06-24T08:57:14;96989.00;;;31.18;100.00
10348;BME280;5220;43.192;23.284;2023-06-24T08:59:41;96983.00;;;31.27;100.00
10348;BME280;5220;43.192;23.284;2023-06-24T09:02:08;96985.97;;;31.14;100.00
10348;BME280;5220;43.192;23.284;2023-06-24T09:04:36;96985.34;;;30.96;100.00
10348;BME280;5220;43.192;23.284;2023-06-24T09:07:03;96980.22;;;31.22;100.00
10348;BME280;5220;43.192;23.284;2023-06-24T09:09:30;96983.13;;;31.21;100.00
10348;BME280;5220;43.192;23.284;2023-06-24T09:11:58;96975.97;;;31.26;100.00
10348;BME280;5220;43.192;23.284;2023-06-24T09:14:27;96981.69;;;31.30;100.00
10348;BME280;5220;43.192;23.284;2023-06-24T09:16:56;96989.13;;;31.39;100.00
10348;BME280;5220;43.192;23.284;2023-06-24T09:19:24;96981.69;;;31.30;100.00
10348;BME280;5220;43.192;23.284;2023-06-24T09:21:55;96986.53;;;31.44;100.00
10348;BME280;5220;43.192;23.284;2023-06-24T09:24:27;96989.88;;;31.52;100.00
10348;BME280;5220;43.192;23.284;2023-06-24T09:26:55;96987.03;;;31.58;100.00
10348;BME280;5220;43.192;23.284;2023-06-24T09:29:26;96985.38;;;31.40;100.00
10348;BME280;5220;43.192;23.284;2023-06-24T09:31:53;96989.13;;;31.39;100.00
10348;BME280;5220;43.192;23.284;2023-06-24T09:34:21;97000.09;;;31.21;100.00
10348;BME280;5220;43.192;23.284;2023-06-24T09:36:51;96990.34;;;31.32;100.00
10348;BME280;5220;43.192;23.284;2023-06-24T09:39:19;97000.66;;;31.52;100.00
10348;BME280;5220;43.192;23.284;2023-06-24T09:41:53;96998.97;;;31.34;100.00
10348;BME280;5220;43.192;23.284;2023-06-24T09:44:20;97007.19;;;31.56;100.00
10348;BME280;5220;43.192;23.284;2023-06-24T09:46:48;97002.97;;;31.48;100.00
10348;BME280;5220;43.192;23.284;2023-06-24T09:49:15;97002.19;;;31.48;100.00
10348;BME280;5220;43.192;23.284;2023-06-24T09:51:43;96997.03;;;31.46;100.00
10348;BME280;5220;43.192;23.284;2023-06-24T09:54:12;97002.28;;;31.53;100.00
10348;BME280;5220;43.192;23.284;2023-06-24T09:56:40;97008.25;;;31.71;100.00
10348;BME280;5220;43.192;23.284;2023-06-24T09:59:09;97009.16;;;31.49;100.00
10348;BME280;5220;43.192;23.284;2023-06-24T10:01:39;97002.97;;;31.60;100.00
10348;BME280;5220;43.192;23.284;2023-06-24T10:04:07;97006.22;;;31.33;100.00
10348;BME280;5220;43.192;23.284;2023-06-24T10:06:34;97009.94;;;31.61;100.00
10348;BME280;5220;43.192;23.284;2023-06-24T10:09:01;96998.41;;;31.60;100.00
10348;BME280;5220;43.192;23.284;2023-06-24T10:11:28;96993.66;;;31.67;100.00
10348;BME280;5220;43.192;23.284;2023-06-24T10:13:56;96992.13;;;31.71;100.00
10348;BME280;5220;43.192;23.284;2023-06-24T10:16:23;96983.22;;;31.87;100.00
10348;BME280;5220;43.192;23.284;2023-06-24T10:18:50;96993.66;;;32.01;100.00
10348;BME280;5220;43.192;23.284;2023-06-24T10:21:19;96989.25;;;32.11;100.00
10348;BME280;5220;43.192;23.284;2023-06-24T10:23:52;96982.81;;;32.12;100.00
10348;BME280;5220;43.192;23.284;2023-06-24T10:26:24;96974.09;;;32.05;100.00
10348;BME280;5220;43.192;23.284;2023-06-24T10:29:10;96971.28;;;32.17;100.00
10348;BME280;5220;43.192;23.284;2023-06-24T10:31:52;96960.63;;;32.22;100.00
10348;BME280;5220;43.192;23.284;2023-06-24T10:34:27;96970.44;;;32.33;100.00
10348;BME280;5220;43.192;23.284;2023-06-24T10:36:58;96957.44;;;32.25;100.00
10348;BME280;5220;43.192;23.284;2023-06-24T10:39:46;96951.28;;;32.29;100.00
10348;BME280;5220;43.192;23.284;2023-06-24T10:42:37;96956.78;;;32.18;100.00
10348;BME280;5220;43.192;23.284;2023-06-24T10:45:17;96949.94;;;31.93;100.00
10348;BME280;5220;43.192;23.284;2023-06-24T10:47:46;96945.22;;;31.84;100.00
10348;BME280;5220;43.192;23.284;2023-06-24T10:50:14;96942.03;;;31.70;100.00
10348;BME280;5220;43.192;23.284;2023-06-24T10:52:43;96942.47;;;31.62;100.00
10348;BME280;5220;43.192;23.284;2023-06-24T10:55:13;96946.38;;;31.55;100.00
10348;BME280;5220;43.192;23.284;2023-06-24T10:57:41;96920.78;;;31.69;100.00
10348;BME280;5220;43.192;23.284;2023-06-24T11:00:09;96919.47;;;31.88;100.00
10348;BME280;5220;43.192;23.284;2023-06-24T11:02:36;96919.38;;;31.83;100.00
10348;BME280;5220;43.192;23.284;2023-06-24T11:05:04;96921.06;;;31.89;100.00
10348;BME280;5220;43.192;23.284;2023-06-24T11:07:32;96921.66;;;31.91;100.00
10348;BME280;5220;43.192;23.284;2023-06-24T11:10:04;96925.22;;;31.96;100.00
10348;BME280;5220;43.192;23.284;2023-06-24T11:12:32;96912.75;;;31.90;100.00
10348;BME280;5220;43.192;23.284;2023-06-24T11:15:01;96912.28;;;31.93;100.00
10348;BME280;5220;43.192;23.284;2023-06-24T11:17:29;96910.25;;;31.84;100.00
10348;BME280;5220;43.192;23.284;2023-06-24T11:19:57;96914.00;;;31.83;100.00
10348;BME280;5220;43.192;23.284;2023-06-24T11:22:25;96916.13;;;31.81;100.00
10348;BME280;5220;43.192;23.284;2023-06-24T11:24:53;96914.59;;;31.68;100.00
10348;BME280;5220;43.192;23.284;2023-06-24T11:27:26;96913.03;;;31.56;100.00
10348;BME280;5220;43.192;23.284;2023-06-24T11:29:54;96913.66;;;31.79;100.00
10348;BME280;5220;43.192;23.284;2023-06-24T11:32:23;96911.22;;;31.78;100.00
10348;BME280;5220;43.192;23.284;2023-06-24T11:34:51;96916.22;;;31.69;100.00
10348;BME280;5220;43.192;23.284;2023-06-24T11:37:18;96920.56;;;31.42;100.00
10348;BME280;5220;43.192;23.284;2023-06-24T11:40:00;96927.06;;;30.84;100.00
10348;BME280;5220;43.192;23.284;2023-06-24T11:42:30;96927.78;;;30.80;100.00
10348;BME280;5220;43.192;23.284;2023-06-24T11:45:01;96936.50;;;30.59;100.00
10348;BME280;5220;43.192;23.284;2023-06-24T11:47:31;96939.75;;;30.61;100.00
10348;BME280;5220;43.192;23.284;2023-06-24T11:50:00;96942.13;;;30.46;100.00
10348;BME280;5220;43.192;23.284;2023-06-24T11:52:33;96937.13;;;30.49;100.00
10348;BME280;5220;43.192;23.284;2023-06-24T11:55:11;96948.34;;;30.46;100.00
10348;BME280;5220;43.192;23.284;2023-06-24T11:57:54;96948.84;;;30.20;100.00
10348;BME280;5220;43.192;23.284;2023-06-24T12:00:22;96947.56;;;29.99;100.00
10348;BME280;5220;43.192;23.284;2023-06-24T12:02:53;96947.22;;;30.07;100.00
10348;BME280;5220;43.192;23.284;2023-06-24T12:05:25;96946.16;;;29.85;100.00
10348;BME280;5220;43.192;23.284;2023-06-24T12:08:01;96958.84;;;29.55;100.00
10348;BME280;5220;43.192;23.284;2023-06-24T12:10:29;96968.63;;;29.19;100.00
10348;BME280;5220;43.192;23.284;2023-06-24T12:12:59;96970.53;;;29.01;100.00
10348;BME280;5220;43.192;23.284;2023-06-24T12:15:26;96976.25;;;29.34;100.00
10348;BME280;5220;43.192;23.284;2023-06-24T12:17:54;96971.06;;;29.21;100.00
10348;BME280;5220;43.192;23.284;2023-06-24T12:20:22;96963.81;;;28.80;100.00
10348;BME280;5220;43.192;23.284;2023-06-24T12:22:48;96946.28;;;28.96;100.00
10348;BME280;5220;43.192;23.284;2023-06-24T12:25:16;96935.88;;;28.88;100.00
10348;BME280;5220;43.192;23.284;2023-06-24T12:27:43;96927.94;;;28.81;100.00
10348;BME280;5220;43.192;23.284;2023-06-24T12:30:12;96933.94;;;28.95;100.00
10348;BME280;5220;43.192;23.284;2023-06-24T12:32:39;96938.53;;;28.40;100.00
10348;BME280;5220;43.192;23.284;2023-06-24T12:35:07;96956.06;;;28.54;100.00
10348;BME280;5220;43.192;23.284;2023-06-24T12:37:35;96968.50;;;28.48;100.00
10348;BME280;5220;43.192;23.284;2023-06-24T12:40:01;96977.13;;;28.50;100.00
10348;BME280;5220;43.192;23.284;2023-06-24T12:42:29;96984.94;;;28.70;100.00
10348;BME280;5220;43.192;23.284;2023-06-24T12:44:56;96970.50;;;28.71;100.00
10348;BME280;5220;43.192;23.284;2023-06-24T12:47:24;96962.31;;;28.84;100.00
10348;BME280;5220;43.192;23.284;2023-06-24T12:49:50;96956.28;;;28.89;100.00
10348;BME280;5220;43.192;23.284;2023-06-24T12:52:18;96947.09;;;28.96;100.00
10348;BME280;5220;43.192;23.284;2023-06-24T12:54:45;96928.84;;;29.05;100.00
10348;BME280;5220;43.192;23.284;2023-06-24T12:57:12;96926.19;;;29.05;100.00